This demonstration page uses our WeatherBlox Daily Observations layout. Learn more.

36.17497, -115.13722

Hourly Observations for July 28, 2015

Temp ( °F °C ) Dew Point ( °F °C ) Humidity (%) Winds ( mph kmh ) Pressure ( in mb ) Visibility ( mi km ) Precip ( " mm )
12:53 am 00:53 Clear 84 29 32 0 15 15 N 9 15 29.68 1005 10 16.09344 0 0
1:53 am 01:53 Clear 82 28 28 -2 14 14 N 6 9 29.68 1005 10 16.09344 0 0
2:53 am 02:53 Clear 81 27 27 -3 14 14 NW 5 7 29.68 1005 10 16.09344 0 0
3:53 am 03:53 Clear 79 26 27 -3 15 15 N 8 13 29.74 1007 10 16.09344 0 0
4:53 am 04:53 Clear 81 27 21 -6 11 11 N 10 17 29.77 1008 10 16.09344 0 0
5:53 am 05:53 Sunny 81 27 23 -5 12 12 N 8 13 29.8 1009 10 16.09344 0 0
6:53 am 06:53 Sunny 81 27 27 -3 14 14 NNE 8 13 29.83 1010 10 16.09344 0 0
7:53 am 07:53 Sunny 84 29 30 -1 14 14 N 8 13 29.8 1009 10 16.09344 0 0
8:53 am 08:53 Sunny 90 32 32 0 13 13 N 6 9 29.83 1010 10 16.09344 0 0
9:53 am 09:53 Sunny 91 33 34 1 13 13 Calm 29.8 1009 10 16.09344 0 0
10:53 am 10:53 Sunny 93 34 34 1 12 12 E 9 15 29.8 1009 10 16.09344 0 0
11:53 am 11:53 Sunny 95 35 32 0 11 11 N 3 6 29.8 1009 10 16.09344 0 0
12:53 pm 12:53 Sunny 97 36 34 1 11 11 E 9 15 29.77 1008 10 16.09344 0 0
1:53 pm 13:53 Sunny 99 37 32 0 10 10 N 5 7 29.71 1006 10 16.09344 0 0
2:53 pm 14:53 Sunny 100 38 30 -1 8 8 SSE 9 15 29.71 1006 10 16.09344 0 0
3:53 pm 15:53 Sunny 99 37 30 -1 9 9 SSE 6 9 29.68 1005 10 16.09344 0 0
4:53 pm 16:53 Sunny 100 38 30 -1 8 8 SSE 7 11 29.65 1004 10 16.09344 0 0
5:53 pm 17:53 Sunny 100 38 30 -1 8 8 SSE 8 13 29.62 1003 10 16.09344 0 0
6:53 pm 18:53 Sunny 100 38 30 -1 8 8 ENE 5 7 29.62 1003 10 16.09344 0 0
7:53 pm 19:53 Clear 99 37 28 -2 8 8 E 3 6 29.65 1004 10 16.09344 0 0
8:53 pm 20:53 Clear 97 36 30 -1 9 9 Calm 29.68 1005 10 16.09344 0 0
9:53 pm 21:53 Clear 93 34 36 2 13 13 W 5 7 29.74 1007 10 16.09344 0 0
10:53 pm 22:53 Clear 90 32 37 3 16 16 NW 6 9 29.74 1007 10 16.09344 0 0
11:53 pm 23:53 Clear 88 31 37 3 17 17 NNW 3 6 29.8 1009 10 16.09344 0 0

Powered by AerisWeather